createdAt,value
2023-05-21T00:00:51.761Z,13.92
2023-05-21T00:01:51.684Z,13.92
2023-05-21T00:02:51.768Z,13.92
2023-05-21T00:03:51.833Z,13.91
2023-05-21T00:04:51.636Z,13.95
2023-05-21T00:05:51.649Z,13.96
2023-05-21T00:06:51.662Z,13.95
2023-05-21T00:07:51.606Z,13.92
2023-05-21T00:08:51.590Z,13.95
2023-05-21T00:09:51.578Z,13.91
2023-05-21T00:10:51.573Z,13.91
2023-05-21T00:11:51.576Z,13.91
2023-05-21T00:12:51.541Z,13.97
2023-05-21T00:13:51.542Z,13.96
2023-05-21T00:14:51.525Z,13.96
2023-05-21T00:15:51.633Z,13.97
2023-05-21T00:16:51.543Z,13.97
2023-05-21T00:17:51.516Z,13.99
2023-05-21T00:18:51.539Z,13.99
2023-05-21T00:19:51.462Z,14.02
2023-05-21T00:20:51.474Z,14.02
2023-05-21T00:21:51.438Z,14.02
2023-05-21T00:22:51.431Z,14.03
2023-05-21T00:23:51.418Z,14.03
2023-05-21T00:24:51.435Z,14.04
2023-05-21T00:25:51.415Z,14.03
2023-05-21T00:26:51.407Z,14.03
2023-05-21T00:27:51.378Z,14.02
2023-05-21T00:28:51.362Z,14.00
2023-05-21T00:29:51.380Z,13.99
2023-05-21T00:30:51.340Z,13.99
2023-05-21T00:31:51.356Z,13.95
2023-05-21T00:32:51.381Z,13.92
2023-05-21T00:33:51.326Z,13.91
2023-05-21T00:34:51.316Z,13.88
2023-05-21T00:35:51.288Z,13.88
2023-05-21T00:36:51.269Z,13.88
2023-05-21T00:37:51.265Z,13.87
2023-05-21T00:38:51.293Z,13.84
2023-05-21T00:39:51.249Z,13.81
2023-05-21T00:40:51.240Z,13.79
2023-05-21T00:41:51.214Z,13.81
2023-05-21T00:42:51.204Z,13.81
2023-05-21T00:43:51.245Z,13.82
2023-05-21T00:44:51.178Z,13.81
2023-05-21T00:45:51.186Z,13.81
2023-05-21T00:46:51.156Z,13.78
2023-05-21T00:47:51.192Z,13.75
2023-05-21T00:48:51.159Z,13.73
2023-05-21T00:49:51.125Z,13.71
2023-05-21T00:50:51.118Z,13.71
2023-05-21T00:51:51.108Z,13.69
2023-05-21T00:52:51.088Z,13.67
2023-05-21T00:53:51.093Z,13.66
2023-05-21T00:54:51.059Z,13.63
2023-05-21T00:55:51.058Z,13.60
2023-05-21T00:56:51.038Z,13.59
2023-05-21T00:57:51.042Z,13.51
2023-05-21T00:58:51.018Z,13.46
2023-05-21T00:59:51.007Z,13.38
2023-05-21T01:00:51.014Z,13.30
2023-05-21T01:01:51.007Z,13.26
2023-05-21T01:02:51.067Z,13.20
2023-05-21T01:03:50.964Z,13.15
2023-05-21T01:04:50.947Z,13.11
2023-05-21T01:05:50.947Z,13.05
2023-05-21T01:06:50.942Z,13.03
2023-05-21T01:07:50.933Z,13.00
2023-05-21T01:08:50.938Z,12.96
2023-05-21T01:09:50.915Z,12.93
2023-05-21T01:10:50.883Z,12.90
2023-05-21T01:11:50.903Z,12.89
2023-05-21T01:12:50.857Z,12.87
2023-05-21T01:13:50.865Z,12.85
2023-05-21T01:14:50.848Z,12.82
2023-05-21T01:15:50.829Z,12.79
2023-05-21T01:16:50.863Z,12.77
2023-05-21T01:17:50.858Z,12.71
2023-05-21T01:18:50.861Z,12.71
2023-05-21T01:19:50.835Z,12.68
2023-05-21T01:20:50.787Z,12.65
2023-05-21T01:21:50.777Z,12.64
2023-05-21T01:22:50.752Z,12.64
2023-05-21T01:23:50.743Z,12.64
2023-05-21T01:24:50.735Z,12.60
2023-05-21T01:25:50.732Z,12.57
2023-05-21T01:26:50.711Z,12.56
2023-05-21T01:27:50.695Z,12.53
2023-05-21T01:28:50.688Z,12.53
2023-05-21T01:29:50.692Z,12.49
2023-05-21T01:30:50.716Z,12.49
2023-05-21T01:31:50.652Z,12.47
2023-05-21T01:32:50.743Z,12.47
2023-05-21T01:33:50.668Z,12.46
2023-05-21T01:34:50.640Z,12.42
2023-05-21T01:35:50.613Z,12.42
2023-05-21T01:36:50.598Z,12.41
2023-05-21T01:37:50.590Z,12.41
2023-05-21T01:38:50.581Z,12.39
2023-05-21T01:39:50.592Z,12.37
2023-05-21T01:40:50.563Z,12.37
2023-05-21T01:41:50.548Z,12.35
2023-05-21T01:42:50.607Z,12.34
2023-05-21T01:43:50.525Z,12.32
2023-05-21T01:44:50.534Z,12.32
2023-05-21T01:45:50.503Z,12.32
2023-05-21T01:46:50.525Z,12.31
2023-05-21T01:47:50.500Z,12.31
2023-05-21T01:48:50.483Z,12.29
2023-05-21T01:49:50.486Z,12.29
2023-05-21T01:50:50.464Z,12.28
2023-05-21T01:51:50.434Z,12.27
2023-05-21T01:52:50.503Z,12.27
2023-05-21T01:53:50.440Z,12.27
2023-05-21T01:54:50.417Z,12.23
2023-05-21T01:55:50.426Z,12.24
2023-05-21T01:56:50.394Z,12.24
2023-05-21T01:57:50.393Z,12.24
2023-05-21T01:58:50.396Z,12.24
2023-05-21T01:59:50.357Z,12.23
2023-05-21T02:00:50.342Z,12.21
2023-05-21T02:01:50.381Z,12.23
2023-05-21T02:02:50.465Z,12.20
2023-05-21T02:03:50.413Z,12.17
2023-05-21T02:04:50.302Z,12.19
2023-05-21T02:05:50.297Z,12.17
2023-05-21T02:06:50.274Z,12.16
2023-05-21T02:07:50.328Z,12.13
2023-05-21T02:08:50.282Z,12.13
2023-05-21T02:09:50.255Z,12.13
2023-05-21T02:10:50.246Z,12.12
2023-05-21T02:11:50.241Z,12.10
2023-05-21T02:12:50.238Z,12.10
2023-05-21T02:13:50.218Z,12.10
2023-05-21T02:14:50.193Z,12.09
2023-05-21T02:15:50.244Z,12.10
2023-05-21T02:16:50.180Z,12.12
2023-05-21T02:17:50.213Z,12.13
2023-05-21T02:18:50.176Z,12.12
2023-05-21T02:19:50.149Z,12.10
2023-05-21T02:20:50.160Z,12.12
2023-05-21T02:21:50.131Z,12.12
2023-05-21T02:22:50.107Z,12.09
2023-05-21T02:23:50.105Z,12.07
2023-05-21T02:24:50.089Z,12.09
2023-05-21T02:25:50.073Z,12.07
2023-05-21T02:26:50.076Z,12.09
2023-05-21T02:27:50.054Z,12.09
2023-05-21T02:28:50.037Z,12.09
2023-05-21T02:29:50.037Z,12.12
2023-05-21T02:30:50.036Z,12.10
2023-05-21T02:31:50.033Z,12.10
2023-05-21T02:32:50.110Z,12.10
2023-05-21T02:33:50.056Z,12.12
2023-05-21T02:34:50.012Z,12.12
2023-05-21T02:35:49.986Z,12.09
2023-05-21T02:36:49.964Z,12.10
2023-05-21T02:37:49.956Z,12.10
2023-05-21T02:38:49.944Z,12.10
2023-05-21T02:39:49.941Z,12.10
2023-05-21T02:40:49.928Z,12.10
2023-05-21T02:41:49.904Z,12.10
2023-05-21T02:42:49.892Z,12.12
2023-05-21T02:43:49.897Z,12.09
2023-05-21T02:44:49.889Z,12.10
2023-05-21T02:45:49.870Z,12.10
2023-05-21T02:46:49.855Z,12.09
2023-05-21T02:47:49.890Z,12.09
2023-05-21T02:48:49.820Z,12.10
2023-05-21T02:49:49.854Z,12.10
2023-05-21T02:50:49.802Z,12.07
2023-05-21T02:51:49.792Z,12.07
2023-05-21T02:52:49.785Z,12.07
2023-05-21T02:53:49.787Z,12.09
2023-05-21T02:54:49.764Z,12.09
2023-05-21T02:55:49.764Z,12.07
2023-05-21T02:56:49.747Z,12.05
2023-05-21T02:57:49.738Z,12.04
2023-05-21T02:58:49.727Z,12.04
2023-05-21T02:59:49.735Z,12.04
2023-05-21T03:00:49.686Z,12.02
2023-05-21T03:01:49.814Z,12.04
2023-05-21T03:02:49.780Z,12.07
2023-05-21T03:03:49.696Z,12.04
2023-05-21T03:04:49.655Z,12.04
2023-05-21T03:05:49.649Z,12.05
2023-05-21T03:06:49.636Z,12.05
2023-05-21T03:07:49.648Z,12.05
2023-05-21T03:08:49.636Z,12.02
2023-05-21T03:09:49.611Z,12.07
2023-05-21T03:10:49.593Z,12.09
2023-05-21T03:11:49.574Z,12.09
2023-05-21T03:12:49.579Z,12.07
2023-05-21T03:13:49.634Z,12.07
2023-05-21T03:14:49.550Z,12.09
2023-05-21T03:15:49.542Z,12.10
2023-05-21T03:16:49.546Z,12.10
2023-05-21T03:17:49.557Z,12.09
2023-05-21T03:18:49.509Z,12.09
2023-05-21T03:19:49.517Z,12.10
2023-05-21T03:20:49.478Z,12.12
2023-05-21T03:21:49.486Z,12.10
2023-05-21T03:22:49.466Z,12.10
2023-05-21T03:23:49.452Z,12.09
2023-05-21T03:24:49.432Z,12.07
2023-05-21T03:25:49.425Z,12.07
2023-05-21T03:26:49.430Z,12.09
2023-05-21T03:27:49.398Z,12.09
2023-05-21T03:28:49.404Z,12.12
2023-05-21T03:29:49.385Z,12.12
2023-05-21T03:30:49.411Z,12.12
2023-05-21T03:31:49.403Z,12.13
2023-05-21T03:32:49.383Z,12.16
2023-05-21T03:33:49.339Z,12.14
2023-05-21T03:34:49.336Z,12.13
2023-05-21T03:35:49.337Z,12.12
2023-05-21T03:36:49.328Z,12.13
2023-05-21T03:37:49.298Z,12.16
2023-05-21T03:38:49.319Z,12.19
2023-05-21T03:39:49.283Z,12.17
2023-05-21T03:40:49.276Z,12.14
2023-05-21T03:41:49.258Z,12.16
2023-05-21T03:42:49.259Z,12.16
2023-05-21T03:43:49.241Z,12.13
2023-05-21T03:44:49.227Z,12.13
2023-05-21T03:45:49.228Z,12.16
2023-05-21T03:46:49.216Z,12.14
2023-05-21T03:47:49.209Z,12.13
2023-05-21T03:48:49.184Z,12.14
2023-05-21T03:49:49.178Z,12.17
2023-05-21T03:50:49.175Z,12.13
2023-05-21T03:51:49.150Z,12.16
2023-05-21T03:52:49.140Z,12.16
2023-05-21T03:53:49.124Z,12.14
2023-05-21T03:54:49.130Z,12.13
2023-05-21T03:55:49.118Z,12.14
2023-05-21T03:56:49.100Z,12.14
2023-05-21T03:57:49.080Z,12.13
2023-05-21T03:58:49.082Z,12.13
2023-05-21T03:59:49.084Z,12.14
2023-05-21T04:00:49.051Z,12.16
2023-05-21T04:01:49.040Z,12.16
2023-05-21T04:02:49.081Z,12.17
2023-05-21T04:03:49.131Z,12.14
2023-05-21T04:04:49.158Z,12.16
2023-05-21T04:05:48.995Z,12.16
2023-05-21T04:06:48.985Z,12.14
2023-05-21T04:07:48.978Z,12.17
2023-05-21T04:08:48.988Z,12.19
2023-05-21T04:09:48.952Z,12.17
2023-05-21T04:10:48.946Z,12.19
2023-05-21T04:11:48.930Z,12.19
2023-05-21T04:12:48.939Z,12.20
2023-05-21T04:13:48.937Z,12.19
2023-05-21T04:14:48.911Z,12.23
2023-05-21T04:15:48.914Z,12.23
2023-05-21T04:16:48.877Z,12.21
2023-05-21T04:17:48.988Z,12.21
2023-05-21T04:18:48.902Z,12.23
2023-05-21T04:19:48.847Z,12.24
2023-05-21T04:20:48.837Z,12.23
2023-05-21T04:21:48.826Z,12.24
2023-05-21T04:22:48.830Z,12.27
2023-05-21T04:23:48.802Z,12.24
2023-05-21T04:24:48.810Z,12.28
2023-05-21T04:25:48.802Z,12.29
2023-05-21T04:26:48.775Z,12.31
2023-05-21T04:27:48.762Z,12.32
2023-05-21T04:28:48.752Z,12.31
2023-05-21T04:29:50.628Z,12.31
2023-05-21T04:30:48.719Z,12.29
2023-05-21T04:31:48.807Z,12.27
2023-05-21T04:32:48.731Z,12.28
2023-05-21T04:33:48.690Z,12.29
2023-05-21T04:34:48.689Z,12.31
2023-05-21T04:35:48.669Z,12.32
2023-05-21T04:36:48.672Z,12.34
2023-05-21T04:37:48.642Z,12.34
2023-05-21T04:38:48.642Z,12.34
2023-05-21T04:39:48.623Z,12.37
2023-05-21T04:40:48.626Z,12.37
2023-05-21T04:41:48.680Z,12.35
2023-05-21T04:42:48.608Z,12.37
2023-05-21T04:43:48.574Z,12.35
2023-05-21T04:44:48.582Z,12.37
2023-05-21T04:45:48.574Z,12.35
2023-05-21T04:46:48.626Z,12.38
2023-05-21T04:47:48.558Z,12.39
2023-05-21T04:48:48.524Z,12.38
2023-05-21T04:49:48.646Z,12.41
2023-05-21T04:50:48.526Z,12.39
2023-05-21T04:51:48.499Z,12.42
2023-05-21T04:52:48.490Z,12.42
2023-05-21T04:53:48.475Z,12.41
2023-05-21T04:54:48.495Z,12.45
2023-05-21T04:55:48.471Z,12.42
2023-05-21T04:56:48.484Z,12.46
2023-05-21T04:57:48.498Z,12.47
2023-05-21T04:58:48.419Z,12.49
2023-05-21T04:59:48.422Z,12.50
2023-05-21T05:00:48.476Z,12.50
2023-05-21T05:01:48.383Z,12.50
2023-05-21T05:02:48.438Z,12.53
2023-05-21T05:03:48.442Z,12.53
2023-05-21T05:04:48.383Z,12.56
2023-05-21T05:05:48.348Z,12.59
2023-05-21T05:06:48.338Z,12.60
2023-05-21T05:07:48.455Z,12.62
2023-05-21T05:08:48.384Z,12.65
2023-05-21T05:09:48.299Z,12.65
2023-05-21T05:10:48.283Z,12.65
2023-05-21T05:11:48.265Z,12.65
2023-05-21T05:12:48.256Z,12.67
2023-05-21T05:13:48.253Z,12.70
2023-05-21T05:14:48.252Z,12.71
2023-05-21T05:15:50.216Z,12.72
2023-05-21T05:16:48.400Z,12.75
2023-05-21T05:17:48.223Z,12.82
2023-05-21T05:18:48.220Z,12.85
2023-05-21T05:19:48.178Z,12.86
2023-05-21T05:20:48.168Z,12.87
2023-05-21T05:21:48.171Z,12.87
2023-05-21T05:22:48.162Z,12.87
2023-05-21T05:23:48.210Z,12.87
2023-05-21T05:24:48.136Z,12.87
2023-05-21T05:25:48.115Z,12.89
2023-05-21T05:26:48.110Z,12.93
2023-05-21T05:27:48.104Z,12.93
2023-05-21T05:28:48.261Z,12.96
2023-05-21T05:29:48.069Z,12.97
2023-05-21T05:30:48.086Z,12.97
2023-05-21T05:31:48.046Z,12.97
2023-05-21T05:32:48.130Z,13.03
2023-05-21T05:33:48.024Z,13.04
2023-05-21T05:34:48.016Z,13.07
2023-05-21T05:35:48.016Z,13.07
2023-05-21T05:36:47.996Z,13.08
2023-05-21T05:37:47.994Z,13.11
2023-05-21T05:38:47.980Z,13.11
2023-05-21T05:39:47.953Z,13.14
2023-05-21T05:40:47.961Z,13.14
2023-05-21T05:41:47.960Z,13.17
2023-05-21T05:42:47.935Z,13.23
2023-05-21T05:43:47.920Z,13.23
2023-05-21T05:44:47.918Z,13.26
2023-05-21T05:45:47.941Z,13.29
2023-05-21T05:46:47.928Z,13.32
2023-05-21T05:47:47.899Z,13.36
2023-05-21T05:48:47.857Z,13.41
2023-05-21T05:49:47.845Z,13.44
2023-05-21T05:50:47.859Z,13.48
2023-05-21T05:51:47.867Z,13.49
2023-05-21T05:52:47.814Z,13.52
2023-05-21T05:53:47.798Z,13.57
2023-05-21T05:54:47.790Z,13.60
2023-05-21T05:55:47.792Z,13.64
2023-05-21T05:56:47.769Z,13.67
2023-05-21T05:57:47.755Z,13.70
2023-05-21T05:58:47.765Z,13.73
2023-05-21T05:59:47.745Z,13.78
2023-05-21T06:00:47.740Z,13.79
2023-05-21T06:01:47.710Z,13.85
2023-05-21T06:02:47.774Z,13.85
2023-05-21T06:03:47.770Z,13.91
2023-05-21T06:04:47.694Z,13.96
2023-05-21T06:05:47.722Z,13.99
2023-05-21T06:06:47.652Z,13.99
2023-05-21T06:07:47.647Z,14.04
2023-05-21T06:08:47.649Z,14.09
2023-05-21T06:09:47.635Z,14.10
2023-05-21T06:10:47.632Z,14.15
2023-05-21T06:11:47.602Z,14.17
2023-05-21T06:12:47.588Z,14.18
2023-05-21T06:13:47.582Z,14.20
2023-05-21T06:14:47.580Z,14.21
2023-05-21T06:15:47.618Z,14.21
2023-05-21T06:16:47.549Z,14.24
2023-05-21T06:17:47.569Z,14.27
2023-05-21T06:18:47.549Z,14.28
2023-05-21T06:19:47.525Z,14.29
2023-05-21T06:20:47.503Z,14.32
2023-05-21T06:21:47.516Z,14.35
2023-05-21T06:22:47.484Z,14.36
2023-05-21T06:23:47.497Z,14.37
2023-05-21T06:24:47.459Z,14.40
2023-05-21T06:25:47.452Z,14.45
2023-05-21T06:26:47.450Z,14.47
2023-05-21T06:27:47.441Z,14.54
2023-05-21T06:28:47.448Z,14.58
2023-05-21T06:29:47.405Z,14.60
2023-05-21T06:30:47.411Z,14.62
2023-05-21T06:31:47.431Z,14.65
2023-05-21T06:32:47.417Z,14.68
2023-05-21T06:33:47.410Z,14.70
2023-05-21T06:34:47.361Z,14.72
2023-05-21T06:35:47.340Z,14.77
2023-05-21T06:36:47.330Z,14.78
2023-05-21T06:37:47.331Z,14.81
2023-05-21T06:38:47.311Z,14.83
2023-05-21T06:39:47.289Z,14.88
2023-05-21T06:40:47.282Z,14.92
2023-05-21T06:41:47.269Z,14.96
2023-05-21T06:42:47.281Z,14.96
2023-05-21T06:43:47.262Z,14.98
2023-05-21T06:44:47.243Z,14.98
2023-05-21T06:45:47.273Z,14.99
2023-05-21T06:46:47.241Z,15.03
2023-05-21T06:47:47.292Z,15.07
2023-05-21T06:48:47.203Z,15.09
2023-05-21T06:49:47.191Z,15.11
2023-05-21T06:50:47.173Z,15.16
2023-05-21T06:51:47.170Z,15.21
2023-05-21T06:52:47.165Z,15.29
2023-05-21T06:53:47.141Z,15.32
2023-05-21T06:54:47.147Z,15.41
2023-05-21T06:55:47.138Z,15.44
2023-05-21T06:56:47.130Z,15.49
2023-05-21T06:57:47.093Z,15.51
2023-05-21T06:58:47.081Z,15.54
2023-05-21T06:59:47.087Z,15.60
2023-05-21T07:00:47.154Z,15.67
2023-05-21T07:01:47.149Z,15.69
2023-05-21T07:02:47.095Z,15.72
2023-05-21T07:03:47.059Z,15.83
2023-05-21T07:04:47.041Z,15.92
2023-05-21T07:05:47.050Z,16.01
2023-05-21T07:06:47.013Z,16.09
2023-05-21T07:07:46.990Z,16.14
2023-05-21T07:08:46.980Z,16.20
2023-05-21T07:09:46.985Z,16.24
2023-05-21T07:10:46.969Z,16.33
2023-05-21T07:11:46.941Z,16.42
2023-05-21T07:12:46.930Z,16.50
2023-05-21T07:13:47.648Z,16.66
2023-05-21T07:14:47.061Z,16.82
2023-05-21T07:15:46.952Z,16.97
2023-05-21T07:16:46.995Z,17.12
2023-05-21T07:17:46.907Z,17.23
2023-05-21T07:18:46.909Z,17.38
2023-05-21T07:19:47.832Z,17.54
2023-05-21T07:20:46.862Z,17.71
2023-05-21T07:21:46.826Z,17.78
2023-05-21T07:22:46.854Z,17.90
2023-05-21T07:23:46.814Z,17.96
2023-05-21T07:24:46.814Z,17.96
2023-05-21T07:25:46.795Z,18.02
2023-05-21T07:26:46.790Z,18.02
2023-05-21T07:27:46.774Z,18.03
2023-05-21T07:28:46.824Z,18.08
2023-05-21T07:29:46.763Z,18.12
2023-05-21T07:30:46.750Z,18.18
2023-05-21T07:31:46.717Z,18.27
2023-05-21T07:32:46.772Z,18.36
2023-05-21T07:33:46.707Z,18.39
2023-05-21T07:34:46.691Z,18.51
2023-05-21T07:35:46.680Z,18.67
2023-05-21T07:36:46.670Z,18.85
2023-05-21T07:37:46.784Z,18.95
2023-05-21T07:38:46.676Z,19.06
2023-05-21T07:39:46.634Z,19.02
2023-05-21T07:40:46.638Z,18.99
2023-05-21T07:41:46.621Z,19.10
2023-05-21T07:42:46.617Z,19.19
2023-05-21T07:43:46.605Z,19.21
2023-05-21T07:44:46.585Z,19.19
2023-05-21T07:45:46.577Z,19.14
2023-05-21T07:46:46.680Z,19.13
2023-05-21T07:47:46.611Z,19.14
2023-05-21T07:48:46.613Z,19.23
2023-05-21T07:49:46.549Z,19.16
2023-05-21T07:50:46.553Z,19.13
2023-05-21T07:51:46.524Z,19.14
2023-05-21T07:52:46.520Z,19.19
2023-05-21T07:53:46.499Z,19.13
2023-05-21T07:54:46.486Z,19.02
2023-05-21T07:55:46.469Z,19.08
2023-05-21T07:56:46.519Z,19.25
2023-05-21T07:57:46.449Z,19.33
2023-05-21T07:58:46.441Z,19.39
2023-05-21T07:59:46.427Z,19.33
2023-05-21T08:00:46.414Z,19.21
2023-05-21T08:01:46.416Z,19.18
2023-05-21T08:02:46.493Z,19.11
2023-05-21T08:03:46.577Z,19.10
2023-05-21T08:04:46.456Z,19.07
2023-05-21T08:05:46.382Z,19.02
2023-05-21T08:06:46.365Z,18.98
2023-05-21T08:07:46.348Z,18.90
2023-05-21T08:08:46.432Z,18.82
2023-05-21T08:09:46.320Z,18.72
2023-05-21T08:10:46.334Z,18.63
2023-05-21T08:11:46.296Z,18.57
2023-05-21T08:12:46.297Z,18.55
2023-05-21T08:13:46.269Z,18.52
2023-05-21T08:14:46.278Z,18.44
2023-05-21T08:15:46.264Z,18.42
2023-05-21T08:16:46.405Z,18.39
2023-05-21T08:17:46.302Z,18.37
2023-05-21T08:18:46.235Z,18.39
2023-05-21T08:19:46.232Z,18.41
2023-05-21T08:20:46.404Z,18.41
2023-05-21T08:21:46.200Z,18.37
2023-05-21T08:22:46.358Z,18.30
2023-05-21T08:23:46.160Z,18.21
2023-05-21T08:24:46.169Z,18.15
2023-05-21T08:25:46.148Z,18.20
2023-05-21T08:26:46.146Z,18.30
2023-05-21T08:27:46.126Z,18.45
2023-05-21T08:28:46.133Z,18.51
2023-05-21T08:29:46.124Z,18.65
2023-05-21T08:30:46.102Z,18.84
2023-05-21T08:31:46.150Z,18.95
2023-05-21T08:32:46.109Z,19.06
2023-05-21T08:33:46.069Z,19.19
2023-05-21T08:34:46.053Z,19.36
2023-05-21T08:35:46.037Z,19.54
2023-05-21T08:36:46.028Z,19.58
2023-05-21T08:37:46.021Z,19.47
2023-05-21T08:38:46.028Z,19.40
2023-05-21T08:39:45.999Z,19.29
2023-05-21T08:40:45.990Z,19.36
2023-05-21T08:41:45.972Z,19.39
2023-05-21T08:42:45.979Z,19.51
2023-05-21T08:43:48.005Z,19.63
2023-05-21T08:44:45.936Z,19.73
2023-05-21T08:45:45.958Z,19.94
2023-05-21T08:46:45.920Z,20.13
2023-05-21T08:47:45.946Z,20.23
2023-05-21T08:48:45.913Z,20.38
2023-05-21T08:49:45.879Z,20.57
2023-05-21T08:50:45.873Z,20.59
2023-05-21T08:51:45.864Z,20.70
2023-05-21T08:52:45.870Z,20.80
2023-05-21T08:53:45.953Z,20.74
2023-05-21T08:54:45.839Z,20.88
2023-05-21T08:55:45.828Z,20.94
2023-05-21T08:56:45.816Z,20.97
2023-05-21T08:57:45.810Z,21.01
2023-05-21T08:58:45.790Z,20.89
2023-05-21T08:59:45.781Z,20.84
2023-05-21T09:00:45.766Z,20.73
2023-05-21T09:01:45.927Z,20.85
2023-05-21T09:02:45.821Z,20.82
2023-05-21T09:03:45.796Z,20.88
2023-05-21T09:04:45.763Z,20.94
2023-05-21T09:05:45.715Z,20.79
2023-05-21T09:06:45.735Z,20.94
2023-05-21T09:07:45.685Z,21.16
2023-05-21T09:08:45.686Z,21.29
2023-05-21T09:09:45.669Z,21.44
2023-05-21T09:10:45.676Z,21.43
2023-05-21T09:11:45.667Z,21.37
2023-05-21T09:12:45.644Z,21.43
2023-05-21T09:13:45.631Z,21.67
2023-05-21T09:14:45.649Z,21.62
2023-05-21T09:15:45.617Z,21.64
2023-05-21T09:16:45.648Z,21.61
2023-05-21T09:17:45.597Z,21.58
2023-05-21T09:18:45.650Z,21.64
2023-05-21T09:19:45.585Z,21.71
2023-05-21T09:20:45.590Z,21.77
2023-05-21T09:21:45.556Z,21.94
2023-05-21T09:22:45.557Z,21.74
2023-05-21T09:23:45.544Z,21.50
2023-05-21T09:24:45.529Z,21.58
2023-05-21T09:25:45.527Z,21.68
2023-05-21T09:26:45.500Z,21.77
2023-05-21T09:27:45.490Z,21.77
2023-05-21T09:28:45.508Z,21.83
2023-05-21T09:29:45.851Z,21.86
2023-05-21T09:30:45.495Z,21.94
2023-05-21T09:31:45.590Z,22.09
2023-05-21T09:32:45.458Z,22.28
2023-05-21T09:33:45.422Z,22.39
2023-05-21T09:34:45.461Z,22.40
2023-05-21T09:35:45.419Z,22.39
2023-05-21T09:36:45.397Z,22.54
2023-05-21T09:37:45.416Z,22.75
2023-05-21T09:38:45.375Z,22.90
2023-05-21T09:39:45.382Z,22.85
2023-05-21T09:40:45.359Z,22.62
2023-05-21T09:41:45.369Z,22.55
2023-05-21T09:42:45.338Z,22.31
2023-05-21T09:43:45.350Z,22.36
2023-05-21T09:44:45.344Z,22.57
2023-05-21T09:45:45.310Z,22.42
2023-05-21T09:46:45.324Z,22.02
2023-05-21T09:47:45.300Z,21.62
2023-05-21T09:48:45.288Z,21.65
2023-05-21T09:49:45.278Z,21.69
2023-05-21T09:50:45.259Z,21.79
2023-05-21T09:51:45.248Z,21.59
2023-05-21T09:52:45.244Z,21.37
2023-05-21T09:53:45.243Z,21.27
2023-05-21T09:54:45.215Z,21.13
2023-05-21T09:55:45.208Z,21.09
2023-05-21T09:56:45.194Z,20.99
2023-05-21T09:57:45.206Z,20.98
2023-05-21T09:58:45.186Z,21.21
2023-05-21T09:59:45.164Z,21.25
2023-05-21T10:00:45.157Z,21.37
2023-05-21T10:01:45.220Z,21.47
2023-05-21T10:02:45.202Z,21.56
2023-05-21T10:03:45.181Z,21.64
2023-05-21T10:04:45.198Z,21.62
2023-05-21T10:05:45.112Z,21.61
2023-05-21T10:06:45.105Z,21.50
2023-05-21T10:07:45.106Z,21.42
2023-05-21T10:08:45.075Z,21.37
2023-05-21T10:09:45.074Z,21.38
2023-05-21T10:10:45.072Z,21.49
2023-05-21T10:11:45.111Z,21.59
2023-05-21T10:12:45.026Z,21.58
2023-05-21T10:13:45.036Z,21.61
2023-05-21T10:14:45.046Z,21.67
2023-05-21T10:15:45.054Z,21.71
2023-05-21T10:16:45.109Z,21.77
2023-05-21T10:17:45.059Z,21.90
2023-05-21T10:18:45.202Z,21.75
2023-05-21T10:19:44.981Z,21.74
2023-05-21T10:20:44.979Z,21.79
2023-05-21T10:21:45.024Z,21.94
2023-05-21T10:22:44.944Z,22.00
2023-05-21T10:23:44.932Z,22.14
2023-05-21T10:24:44.915Z,22.22
2023-05-21T10:25:44.906Z,22.24
2023-05-21T10:26:44.928Z,22.24
2023-05-21T10:27:44.893Z,22.20
2023-05-21T10:28:44.875Z,22.24
2023-05-21T10:29:44.896Z,22.15
2023-05-21T10:30:44.871Z,22.20
2023-05-21T10:31:44.859Z,22.24
2023-05-21T10:32:44.995Z,22.31
2023-05-21T10:33:44.826Z,22.31
2023-05-21T10:34:44.825Z,22.25
2023-05-21T10:35:44.813Z,22.21
2023-05-21T10:36:44.909Z,22.30
2023-05-21T10:37:44.786Z,22.31
2023-05-21T10:38:44.803Z,22.39
2023-05-21T10:39:44.864Z,22.52
2023-05-21T10:40:44.826Z,22.47
2023-05-21T10:41:44.813Z,22.27
2023-05-21T10:42:44.807Z,22.27
2023-05-21T10:43:44.806Z,22.40
2023-05-21T10:44:44.809Z,22.46
2023-05-21T10:45:44.759Z,22.47
2023-05-21T10:46:44.788Z,22.55
2023-05-21T10:47:44.772Z,22.57
2023-05-21T10:48:44.744Z,22.52
2023-05-21T10:49:44.782Z,22.65
2023-05-21T10:50:44.716Z,22.85
2023-05-21T10:51:44.695Z,23.07
2023-05-21T10:52:44.744Z,23.15
2023-05-21T10:53:44.708Z,23.19
2023-05-21T10:54:44.723Z,23.25
2023-05-21T10:55:44.703Z,23.32
2023-05-21T10:56:44.724Z,23.50
2023-05-21T10:57:44.652Z,23.63
2023-05-21T10:58:44.692Z,23.61
2023-05-21T10:59:44.594Z,23.54
2023-05-21T11:00:44.622Z,23.43
2023-05-21T11:01:44.710Z,23.38
2023-05-21T11:02:44.765Z,23.50
2023-05-21T11:03:44.645Z,23.66
2023-05-21T11:04:44.553Z,23.90
2023-05-21T11:05:44.628Z,24.00
2023-05-21T11:06:44.571Z,24.03
2023-05-21T11:07:44.589Z,24.09
2023-05-21T11:08:44.532Z,23.90
2023-05-21T11:09:44.539Z,23.66
2023-05-21T11:10:44.618Z,23.60
2023-05-21T11:11:44.511Z,23.66
2023-05-21T11:12:44.528Z,23.78
2023-05-21T11:13:44.499Z,23.84
2023-05-21T11:14:44.494Z,23.73
2023-05-21T11:15:44.483Z,23.51
2023-05-21T11:16:44.710Z,23.47
2023-05-21T11:17:44.493Z,23.50
2023-05-21T11:18:44.426Z,23.47
2023-05-21T11:19:44.464Z,23.42
2023-05-21T11:20:44.368Z,23.43
2023-05-21T11:21:44.370Z,23.43
2023-05-21T11:22:44.349Z,23.32
2023-05-21T11:23:44.350Z,23.09
2023-05-21T11:24:44.337Z,23.15
2023-05-21T11:25:44.354Z,23.07
2023-05-21T11:26:44.326Z,23.12
2023-05-21T11:27:44.302Z,23.19
2023-05-21T11:28:44.302Z,23.19
2023-05-21T11:29:44.341Z,23.31
2023-05-21T11:30:44.564Z,23.27
2023-05-21T11:31:44.311Z,23.31
2023-05-21T11:32:44.290Z,23.25
2023-05-21T11:33:44.243Z,23.19
2023-05-21T11:34:44.237Z,23.28
2023-05-21T11:35:44.222Z,23.47
2023-05-21T11:36:44.210Z,23.65
2023-05-21T11:37:44.188Z,23.73
2023-05-21T11:38:44.192Z,23.83
2023-05-21T11:39:44.186Z,23.94
2023-05-21T11:40:44.181Z,24.15
2023-05-21T11:41:44.159Z,24.30
2023-05-21T11:42:44.184Z,24.32
2023-05-21T11:43:44.143Z,24.31
2023-05-21T11:44:44.150Z,24.18
2023-05-21T11:45:44.127Z,24.09
2023-05-21T11:46:44.200Z,24.03
2023-05-21T11:47:44.174Z,24.10
2023-05-21T11:48:44.081Z,24.21
2023-05-21T11:49:44.094Z,24.25
2023-05-21T11:50:44.086Z,24.09
2023-05-21T11:51:44.067Z,24.08
2023-05-21T11:52:44.077Z,24.09
2023-05-21T11:53:44.502Z,24.08
2023-05-21T11:54:44.053Z,23.94
2023-05-21T11:55:44.018Z,23.61
2023-05-21T11:56:44.017Z,23.48
2023-05-21T11:57:44.009Z,23.47
2023-05-21T11:58:44.020Z,23.42
2023-05-21T11:59:44.006Z,23.46
2023-05-21T12:00:43.990Z,23.53
2023-05-21T12:01:43.955Z,23.39
2023-05-21T12:02:44.006Z,23.32
2023-05-21T12:03:44.103Z,23.42
2023-05-21T12:04:43.947Z,23.51
2023-05-21T12:05:43.950Z,23.57
2023-05-21T12:06:43.927Z,23.70
2023-05-21T12:07:43.911Z,23.76
2023-05-21T12:08:43.995Z,23.85
2023-05-21T12:09:43.875Z,23.97
2023-05-21T12:10:46.030Z,23.97
2023-05-21T12:11:43.878Z,23.91
2023-05-21T12:12:54.865Z,23.80
2023-05-21T12:13:44.885Z,23.83
2023-05-21T12:14:43.840Z,23.91
2023-05-21T12:15:43.817Z,24.00
2023-05-21T12:16:43.867Z,24.16
2023-05-21T12:17:43.843Z,24.20
2023-05-21T12:18:43.847Z,24.27
2023-05-21T12:19:43.789Z,24.40
2023-05-21T12:20:43.783Z,24.45
2023-05-21T12:21:43.774Z,24.49
2023-05-21T12:22:43.782Z,24.60
2023-05-21T12:23:43.750Z,24.60
2023-05-21T12:24:43.765Z,24.49
2023-05-21T12:25:43.727Z,24.37
2023-05-21T12:26:43.728Z,24.46
2023-05-21T12:27:43.711Z,24.46
2023-05-21T12:28:43.701Z,24.52
2023-05-21T12:29:43.691Z,24.55
2023-05-21T12:30:43.686Z,24.61
2023-05-21T12:31:43.817Z,24.60
2023-05-21T12:32:43.711Z,24.81
2023-05-21T12:33:43.646Z,24.98
2023-05-21T12:34:43.777Z,25.02
2023-05-21T12:35:43.664Z,25.09
2023-05-21T12:36:43.627Z,25.21
2023-05-21T12:37:43.631Z,25.18
2023-05-21T12:38:43.595Z,25.17
2023-05-21T12:39:43.594Z,25.15
2023-05-21T12:40:43.605Z,25.08
2023-05-21T12:41:43.594Z,24.95
2023-05-21T12:42:43.562Z,24.93
2023-05-21T12:43:43.582Z,24.85
2023-05-21T12:44:43.549Z,24.93
2023-05-21T12:45:43.678Z,24.93
2023-05-21T12:46:43.562Z,24.91
2023-05-21T12:47:43.577Z,24.71
2023-05-21T12:48:43.523Z,24.68
2023-05-21T12:49:43.517Z,24.67
2023-05-21T12:50:43.519Z,24.62
2023-05-21T12:51:43.490Z,24.60
2023-05-21T12:52:43.471Z,24.53